Time;durP1;ratioP1;P1;durP2;ratioP2;P2;SDS_P1;SDS_P2;PMS_P1;PMS_P2;Temp;Humidity;BMP_temperature;BMP_pressure;BME280_temperature;BME280_humidity;BME280_pressure;Samples;Min_cycle;Max_cycle;Signal;HPM_P1;HPM_P2
2023/08/31 00:01:38;;;;;;;9.23;1.95;;;14.70;99.90;;;;;;4972949;28;20153;-82
2023/08/31 00:04:05;;;;;;;3.30;1.73;;;14.80;99.90;;;;;;4966523;28;20479;-82
2023/08/31 00:06:31;;;;;;;7.85;2.63;;;15.40;99.90;;;;;;4958454;28;20034;-81
2023/08/31 00:08:57;;;;;;;6.82;2.42;;;14.80;99.90;;;;;;4974869;28;20023;-82
2023/08/31 00:11:23;;;;;;;6.03;2.28;;;14.90;99.90;;;;;;4973498;28;20387;-82
2023/08/31 00:13:49;;;;;;;6.53;2.05;;;14.90;99.90;;;;;;4966196;28;20031;-82
2023/08/31 00:16:15;;;;;;;3.67;2.35;;;15.10;99.90;;;;;;4975275;28;20033;-81
2023/08/31 00:18:41;;;;;;;5.15;1.85;;;14.90;99.90;;;;;;4960538;28;20038;-82
2023/08/31 00:21:06;;;;;;;4.32;2.13;;;15.00;99.90;;;;;;4955120;29;20027;-81
2023/08/31 00:23:32;;;;;;;9.07;3.05;;;15.00;99.90;;;;;;4965466;28;20053;-81
2023/08/31 00:25:57;;;;;;;5.75;2.97;;;15.00;99.90;;;;;;4967746;28;20114;-81
2023/08/31 00:28:23;;;;;;;7.28;3.33;;;15.00;99.90;;;;;;4965574;28;20063;-82
2023/08/31 00:30:49;;;;;;;8.13;2.55;;;15.00;99.90;;;;;;4955649;28;20027;-82
2023/08/31 00:33:15;;;;;;;6.70;3.05;;;15.00;99.90;;;;;;4972627;28;20431;-82
2023/08/31 00:35:46;;;;;;;5.72;2.88;;;15.10;99.90;;;;;;4963425;28;20082;-82
2023/08/31 00:38:12;;;;;;;9.20;3.88;;;15.10;99.90;;;;;;4955670;29;20383;-82
2023/08/31 00:40:45;;;;;;;5.65;3.55;;;15.10;99.90;;;;;;4974093;28;20100;-82
2023/08/31 00:43:10;;;;;;;7.43;3.70;;;15.10;99.90;;;;;;4973990;28;20043;-82
2023/08/31 00:45:37;;;;;;;8.93;4.60;;;15.10;99.90;;;;;;4965987;28;20542;-82
2023/08/31 00:48:04;;;;;;;8.80;3.88;;;15.10;99.90;;;;;;4974687;28;20122;-82
2023/08/31 00:50:30;;;;;;;4.85;3.47;;;15.00;99.90;;;;;;4955820;28;20019;-82
2023/08/31 00:52:56;;;;;;;3.80;3.15;;;14.90;99.90;;;;;;4974447;28;20578;-82
2023/08/31 00:55:22;;;;;;;8.80;3.80;;;14.90;99.90;;;;;;4970400;28;20035;-82
2023/08/31 00:57:48;;;;;;;9.35;3.42;;;14.80;99.90;;;;;;4959065;28;20031;-82
2023/08/31 01:00:14;;;;;;;7.05;3.45;;;14.90;99.90;;;;;;4972527;28;20077;-82
2023/08/31 01:02:46;;;;;;;4.18;2.28;;;14.80;99.90;;;;;;4959830;28;20155;-82
2023/08/31 01:05:49;;;;;;;4.50;2.72;;;15.80;99.90;;;;;;4960964;28;20035;-82
2023/08/31 01:08:27;;;;;;;4.35;1.83;;;14.90;99.90;;;;;;4967502;28;20039;-81
2023/08/31 01:11:17;;;;;;;3.25;1.60;;;14.90;99.90;;;;;;4966464;28;20073;-82
2023/08/31 01:13:51;;;;;;;6.25;1.55;;;14.90;99.90;;;;;;4965235;28;20391;-82
2023/08/31 01:16:18;;;;;;;3.58;1.77;;;14.90;99.90;;;;;;4962998;28;20035;-82
2023/08/31 01:18:46;;;;;;;5.15;1.17;;;14.90;99.90;;;;;;4966807;28;20380;-82
2023/08/31 01:21:30;;;;;;;4.28;1.50;;;15.00;99.90;;;;;;4967360;28;20487;-82
2023/08/31 01:23:57;;;;;;;3.05;1.55;;;15.00;99.90;;;;;;4959022;28;20066;-82
2023/08/31 01:26:24;;;;;;;5.63;1.50;;;15.00;99.90;;;;;;4965277;28;20098;-82
2023/08/31 01:28:51;;;;;;;5.20;2.03;;;15.00;99.90;;;;;;4970178;28;20134;-82
2023/08/31 01:31:17;;;;;;;2.08;1.60;;;15.10;99.90;;;;;;4968713;28;20066;-82
2023/08/31 01:33:43;;;;;;;3.90;1.80;;;15.00;99.90;;;;;;4963123;28;20050;-82
2023/08/31 01:36:14;;;;;;;3.75;1.92;;;15.40;99.90;;;;;;4968165;28;20038;-82
2023/08/31 01:38:45;;;;;;;1.75;1.55;;;15.00;99.90;;;;;;4963921;28;20034;-82
2023/08/31 01:41:17;;;;;;;3.03;2.05;;;14.90;99.90;;;;;;4957271;28;20042;-82
2023/08/31 01:43:43;;;;;;;4.18;2.03;;;14.90;99.90;;;;;;4971964;28;20054;-82
2023/08/31 01:46:10;;;;;;;1.92;1.67;;;14.90;99.90;;;;;;4962292;28;20459;-81
2023/08/31 01:48:41;;;;;;;4.53;1.90;;;14.90;99.90;;;;;;4962584;28;20029;-81
2023/08/31 01:51:09;;;;;;;2.85;2.15;;;14.90;99.90;;;;;;4959278;28;20022;-81
2023/08/31 01:53:34;;;;;;;6.55;2.15;;;14.90;99.90;;;;;;4968139;28;20391;-81
2023/08/31 01:56:00;;;;;;;4.00;2.80;;;14.80;99.90;;;;;;4964342;28;20023;-82
2023/08/31 01:58:26;;;;;;;3.28;2.28;;;14.70;99.90;;;;;;4963821;28;20024;-82
2023/08/31 02:00:51;;;;;;;3.90;2.72;;;14.70;99.90;;;;;;4966993;28;20034;-81
2023/08/31 02:03:17;;;;;;;3.55;2.20;;;14.70;99.90;;;;;;4972398;28;20042;-82
2023/08/31 02:05:42;;;;;;;6.60;2.83;;;14.80;99.90;;;;;;4965654;28;20045;-81
2023/08/31 02:08:08;;;;;;;3.03;2.15;;;15.40;99.90;;;;;;4968319;28;20035;-81
2023/08/31 02:10:33;;;;;;;2.95;1.55;;;14.70;99.90;;;;;;4971606;28;20501;-81
2023/08/31 02:13:00;;;;;;;1.52;1.20;;;14.70;99.90;;;;;;4965136;28;20035;-81
2023/08/31 02:15:25;;;;;;;2.45;1.65;;;14.70;99.90;;;;;;4972612;28;20027;-81
2023/08/31 02:17:51;;;;;;;3.20;1.67;;;14.70;99.90;;;;;;4963915;28;20367;-81
2023/08/31 02:20:16;;;;;;;3.47;1.85;;;14.80;99.90;;;;;;4956733;28;20031;-81
2023/08/31 02:22:42;;;;;;;2.85;1.63;;;14.80;99.90;;;;;;4954490;28;20035;-81
2023/08/31 02:25:08;;;;;;;2.20;1.10;;;14.80;99.90;;;;;;4956881;28;20082;-81
2023/08/31 02:27:33;;;;;;;2.70;1.00;;;14.80;99.90;;;;;;4966337;28;20066;-81
2023/08/31 02:29:59;;;;;;;2.65;1.00;;;14.80;99.90;;;;;;4970802;28;20073;-81
2023/08/31 02:32:25;;;;;;;2.72;1.15;;;14.90;99.90;;;;;;4957195;28;20479;-81
2023/08/31 02:34:50;;;;;;;2.47;1.50;;;14.90;99.90;;;;;;4955760;28;20031;-82
2023/08/31 02:37:16;;;;;;;4.25;2.33;;;14.90;99.90;;;;;;4959698;28;20031;-82
2023/08/31 02:39:41;;;;;;;7.13;3.85;;;14.90;99.90;;;;;;4973258;28;20019;-82
2023/08/31 02:42:07;;;;;;;6.22;4.72;;;15.20;99.90;;;;;;4965627;28;20130;-82
2023/08/31 02:44:33;;;;;;;15.82;5.95;;;15.10;99.90;;;;;;4964061;28;20110;-82
2023/08/31 02:46:59;;;;;;;8.73;6.28;;;14.90;99.90;;;;;;4966928;28;20114;-82
2023/08/31 02:49:24;;;;;;;9.05;5.75;;;14.90;99.90;;;;;;4973952;28;20100;-81
2023/08/31 02:51:50;;;;;;;10.48;5.93;;;14.80;99.90;;;;;;4974843;28;20208;-82
2023/08/31 02:54:16;;;;;;;11.20;6.57;;;14.80;99.90;;;;;;4975548;28;20046;-82
2023/08/31 02:56:42;;;;;;;8.20;6.97;;;14.80;99.90;;;;;;4969539;28;20478;-83
2023/08/31 02:59:07;;;;;;;7.60;6.60;;;14.80;99.90;;;;;;4968593;28;20019;-82
2023/08/31 03:01:33;;;;;;;9.13;7.32;;;14.80;99.90;;;;;;4971527;28;20039;-82
2023/08/31 03:03:58;;;;;;;7.10;6.40;;;14.80;99.90;;;;;;4974796;28;20132;-82
2023/08/31 03:06:25;;;;;;;11.90;7.40;;;14.80;99.90;;;;;;4968697;28;20035;-82
2023/08/31 03:08:50;;;;;;;9.95;7.97;;;14.80;99.90;;;;;;4974782;28;20081;-82
2023/08/31 03:11:16;;;;;;;9.98;6.65;;;14.80;99.90;;;;;;4966319;28;20023;-82
2023/08/31 03:13:42;;;;;;;13.35;8.35;;;14.80;99.90;;;;;;4971112;28;20109;-82
2023/08/31 03:16:08;;;;;;;15.65;8.10;;;14.70;99.90;;;;;;4973951;28;20505;-82
2023/08/31 03:18:33;;;;;;;12.80;8.10;;;14.70;99.90;;;;;;4960142;28;20122;-82
2023/08/31 03:20:59;;;;;;;11.15;8.52;;;14.70;99.90;;;;;;4960497;28;20028;-82
2023/08/31 03:23:25;;;;;;;10.23;8.25;;;14.70;99.90;;;;;;4960341;28;20055;-82
2023/08/31 03:25:51;;;;;;;11.63;8.55;;;14.70;99.90;;;;;;4971801;28;20034;-81
2023/08/31 03:28:16;;;;;;;10.25;9.05;;;14.70;99.90;;;;;;4974226;28;20097;-81
2023/08/31 03:30:44;;;;;;;16.58;10.45;;;14.60;99.90;;;;;;4961708;28;20027;-81
2023/08/31 03:33:10;;;;;;;10.00;9.00;;;14.50;99.90;;;;;;4963868;28;20475;-81
2023/08/31 03:35:36;;;;;;;9.57;8.57;;;14.50;99.90;;;;;;4974540;28;20118;-82
2023/08/31 03:38:02;;;;;;;12.25;9.13;;;14.50;99.90;;;;;;4964662;28;20037;-82
2023/08/31 03:40:27;;;;;;;11.65;9.43;;;14.50;99.90;;;;;;4969935;28;20117;-81
2023/08/31 03:42:53;;;;;;;11.88;9.10;;;14.50;99.90;;;;;;4975586;28;20038;-81
2023/08/31 03:45:20;;;;;;;8.65;7.85;;;14.40;99.90;;;;;;4967270;28;20031;-81
2023/08/31 03:47:45;;;;;;;12.38;9.30;;;14.50;99.90;;;;;;4973359;28;20035;-82
2023/08/31 03:50:11;;;;;;;8.77;7.88;;;14.50;99.90;;;;;;4965036;28;20167;-82
2023/08/31 03:52:36;;;;;;;10.00;7.90;;;14.40;99.90;;;;;;4962182;28;20034;-82
2023/08/31 03:55:02;;;;;;;8.15;7.40;;;14.40;99.90;;;;;;4974173;28;20027;-82
2023/08/31 03:57:28;;;;;;;8.98;7.72;;;14.40;99.90;;;;;;4966378;28;20098;-82
2023/08/31 03:59:53;;;;;;;11.05;8.00;;;14.40;99.90;;;;;;4957556;28;20380;-81
2023/08/31 04:02:19;;;;;;;8.35;7.03;;;14.40;99.90;;;;;;4963645;28;20388;-82
2023/08/31 04:04:44;;;;;;;8.20;7.35;;;14.50;99.90;;;;;;4963909;28;20033;-82
2023/08/31 04:07:10;;;;;;;11.10;6.95;;;14.50;99.90;;;;;;4972799;28;20042;-81
2023/08/31 04:09:36;;;;;;;7.32;5.90;;;14.60;99.90;;;;;;4965749;28;20038;-83
2023/08/31 04:12:01;;;;;;;13.88;6.80;;;14.50;99.90;;;;;;4972054;28;20179;-83
2023/08/31 04:14:27;;;;;;;9.98;5.88;;;14.50;99.90;;;;;;4966401;28;20106;-82
2023/08/31 04:16:54;;;;;;;8.40;5.85;;;14.50;99.90;;;;;;4964718;28;20022;-82
2023/08/31 04:19:19;;;;;;;6.32;4.93;;;14.50;99.90;;;;;;4962940;28;20112;-82
2023/08/31 04:21:45;;;;;;;5.57;4.75;;;14.40;99.90;;;;;;4955753;28;20463;-82
2023/08/31 04:24:11;;;;;;;9.23;5.25;;;14.60;99.90;;;;;;4959993;28;20054;-82
2023/08/31 04:26:36;;;;;;;7.40;4.60;;;14.40;99.90;;;;;;4964454;28;20041;-81
2023/08/31 04:29:05;;;;;;;6.60;4.72;;;14.40;99.90;;;;;;4960142;28;20464;-83
2023/08/31 04:31:34;;;;;;;5.93;4.80;;;14.40;99.90;;;;;;4965295;28;20525;-82
2023/08/31 04:33:59;;;;;;;8.05;4.85;;;14.40;99.90;;;;;;4966236;28;20037;-81
2023/08/31 04:36:25;;;;;;;14.98;7.00;;;14.40;99.90;;;;;;4961616;28;20023;-81
2023/08/31 04:38:51;;;;;;;10.30;6.15;;;14.40;99.90;;;;;;4970131;28;20058;-81
2023/08/31 04:41:17;;;;;;;6.20;5.60;;;14.30;99.90;;;;;;4959763;28;20037;-81
2023/08/31 04:43:43;;;;;;;6.07;5.22;;;14.30;99.90;;;;;;4964068;28;20480;-81
2023/08/31 04:46:09;;;;;;;6.28;5.68;;;14.30;99.90;;;;;;4972335;28;20035;-83
2023/08/31 04:48:36;;;;;;;7.03;5.15;;;14.40;99.90;;;;;;4962311;28;20050;-83
2023/08/31 04:51:03;;;;;;;8.90;4.97;;;14.40;99.90;;;;;;4971104;28;20501;-82
2023/08/31 04:53:30;;;;;;;6.00;5.43;;;14.40;99.90;;;;;;4972717;28;20030;-82
2023/08/31 04:55:55;;;;;;;7.88;5.10;;;14.40;99.90;;;;;;4970393;28;20085;-82
2023/08/31 04:58:21;;;;;;;6.43;5.28;;;14.40;99.90;;;;;;4971147;28;20495;-82
2023/08/31 05:00:47;;;;;;;8.27;5.35;;;14.40;99.90;;;;;;4973214;28;20391;-82
2023/08/31 05:03:13;;;;;;;6.95;4.53;;;14.40;99.90;;;;;;4972765;28;20475;-82
2023/08/31 05:05:38;;;;;;;5.53;4.05;;;14.50;99.90;;;;;;4973245;28;20019;-82
2023/08/31 05:08:04;;;;;;;5.35;3.47;;;14.50;99.90;;;;;;4972776;28;20050;-82
2023/08/31 05:10:30;;;;;;;6.05;3.17;;;14.50;99.90;;;;;;4971034;28;20424;-82
2023/08/31 05:12:56;;;;;;;4.30;3.00;;;14.50;99.90;;;;;;4953127;28;20161;-82
2023/08/31 05:15:22;;;;;;;7.07;2.72;;;14.50;99.90;;;;;;4958146;28;20030;-80
2023/08/31 05:17:48;;;;;;;6.32;2.88;;;14.50;99.90;;;;;;4969130;28;20590;-80
2023/08/31 05:20:14;;;;;;;4.38;2.65;;;14.60;99.90;;;;;;4953046;29;20497;-80
2023/08/31 05:22:39;;;;;;;5.40;2.80;;;14.60;99.90;;;;;;4967551;28;20042;-81
2023/08/31 05:25:05;;;;;;;4.85;2.72;;;14.50;99.90;;;;;;4972403;28;20031;-80
2023/08/31 05:27:31;;;;;;;6.07;2.75;;;14.50;99.90;;;;;;4954028;29;20071;-84
2023/08/31 05:29:57;;;;;;;3.55;1.95;;;14.50;99.90;;;;;;4954471;28;20384;-82
2023/08/31 05:32:22;;;;;;;3.40;2.53;;;14.50;99.90;;;;;;4963911;28;20030;-82
2023/08/31 05:34:48;;;;;;;4.22;2.70;;;14.80;99.90;;;;;;4963870;28;20029;-82
2023/08/31 05:37:14;;;;;;;5.25;2.67;;;15.30;99.90;;;;;;4962398;28;20023;-82
2023/08/31 05:39:39;;;;;;;4.50;2.33;;;14.60;99.90;;;;;;4967628;28;20015;-82
2023/08/31 05:42:05;;;;;;;7.22;2.63;;;14.60;99.90;;;;;;4966276;28;20039;-81
2023/08/31 05:44:31;;;;;;;3.85;2.17;;;14.70;99.90;;;;;;4962887;28;20045;-81
2023/08/31 05:46:56;;;;;;;8.38;2.65;;;14.70;99.90;;;;;;4964181;28;20031;-82
2023/08/31 05:49:22;;;;;;;4.93;2.95;;;14.70;99.90;;;;;;4962541;28;20043;-81
2023/08/31 05:51:48;;;;;;;4.35;2.60;;;14.70;99.90;;;;;;4967670;28;20081;-81
2023/08/31 05:54:14;;;;;;;2.97;2.35;;;14.90;99.90;;;;;;4971573;28;20494;-80
2023/08/31 05:56:40;;;;;;;4.45;2.00;;;14.70;99.90;;;;;;4970390;28;20041;-80
2023/08/31 05:59:08;;;;;;;4.40;2.13;;;14.70;99.90;;;;;;4968769;28;20391;-80
2023/08/31 06:01:36;;;;;;;4.72;2.33;;;14.60;99.90;;;;;;4954133;28;20064;-81
2023/08/31 06:04:03;;;;;;;3.70;2.58;;;14.70;99.90;;;;;;4972505;28;20050;-82
2023/08/31 06:06:28;;;;;;;6.88;3.42;;;14.70;99.90;;;;;;4967447;28;20469;-82
2023/08/31 06:08:54;;;;;;;3.08;2.00;;;14.60;99.90;;;;;;4954445;28;20118;-82
2023/08/31 06:11:21;;;;;;;3.72;2.42;;;14.70;99.90;;;;;;4954001;29;20027;-83
2023/08/31 06:13:46;;;;;;;4.38;3.30;;;14.70;99.90;;;;;;4952874;29;20093;-82
2023/08/31 06:16:12;;;;;;;4.65;3.17;;;14.70;99.90;;;;;;4954152;29;20087;-82
2023/08/31 06:18:38;;;;;;;6.57;3.40;;;14.70;99.90;;;;;;4953553;29;20472;-82
2023/08/31 06:21:03;;;;;;;10.32;3.80;;;14.70;99.90;;;;;;4959612;28;20039;-82
2023/08/31 06:23:29;;;;;;;4.15;3.75;;;14.70;99.90;;;;;;4958231;28;20086;-81
2023/08/31 06:25:54;;;;;;;4.95;4.22;;;14.90;99.90;;;;;;4953622;29;20463;-82
2023/08/31 06:28:20;;;;;;;7.45;4.18;;;14.70;99.90;;;;;;4952995;29;20114;-82
2023/08/31 06:30:49;;;;;;;4.72;4.32;;;14.80;99.90;;;;;;4953329;29;20268;-81
2023/08/31 06:33:15;;;;;;;6.68;4.78;;;14.80;99.90;;;;;;4953442;29;20113;-82
2023/08/31 06:35:41;;;;;;;7.68;4.68;;;14.70;99.90;;;;;;4952500;29;20019;-81
2023/08/31 06:38:06;;;;;;;10.18;5.15;;;14.70;99.90;;;;;;4953309;29;20057;-81
2023/08/31 06:40:33;;;;;;;9.20;5.30;;;14.80;99.90;;;;;;4953852;28;20034;-81
2023/08/31 06:42:58;;;;;;;13.35;6.25;;;14.80;99.90;;;;;;4962195;28;20162;-84
2023/08/31 06:45:24;;;;;;;9.55;5.60;;;14.80;99.90;;;;;;4956776;28;20098;-83
2023/08/31 06:47:50;;;;;;;8.13;5.22;;;14.80;99.90;;;;;;4970820;28;20027;-83
2023/08/31 06:50:16;;;;;;;8.57;4.90;;;14.80;99.90;;;;;;4970275;28;20034;-83
2023/08/31 06:52:42;;;;;;;9.18;5.45;;;14.80;99.90;;;;;;4970471;28;20023;-82
2023/08/31 06:55:08;;;;;;;6.22;5.20;;;14.90;99.90;;;;;;4971644;28;20030;-83
2023/08/31 06:57:33;;;;;;;10.55;5.15;;;14.80;99.90;;;;;;4969785;28;20509;-82
2023/08/31 06:59:59;;;;;;;7.43;5.30;;;15.20;99.90;;;;;;4970124;28;20035;-82
2023/08/31 07:02:28;;;;;;;8.13;5.95;;;15.00;99.90;;;;;;4970611;28;20110;-83
2023/08/31 07:04:53;;;;;;;7.30;5.20;;;15.00;99.90;;;;;;4969899;28;20042;-83
2023/08/31 07:07:19;;;;;;;6.88;6.22;;;15.00;99.90;;;;;;4971594;28;20034;-83
2023/08/31 07:09:47;;;;;;;7.38;4.55;;;15.10;99.90;;;;;;4969191;28;20105;-83
2023/08/31 07:12:12;;;;;;;5.40;3.95;;;15.00;99.90;;;;;;4971868;28;20041;-82
2023/08/31 07:14:38;;;;;;;8.50;3.42;;;15.10;99.90;;;;;;4970382;28;20019;-82
2023/08/31 07:17:04;;;;;;;5.40;3.40;;;15.10;99.90;;;;;;4971549;28;20059;-83
2023/08/31 07:19:29;;;;;;;5.32;2.63;;;15.10;99.90;;;;;;4971482;28;20023;-83
2023/08/31 07:21:55;;;;;;;4.90;2.50;;;15.20;99.90;;;;;;4968315;28;20550;-82
2023/08/31 07:24:22;;;;;;;3.22;2.10;;;15.20;99.90;;;;;;4961794;28;20067;-83
2023/08/31 07:26:48;;;;;;;5.45;2.65;;;15.20;99.90;;;;;;4966644;28;20407;-82
2023/08/31 07:29:15;;;;;;;2.53;2.15;;;15.30;99.90;;;;;;4973734;28;20558;-85
2023/08/31 07:31:40;;;;;;;8.40;3.00;;;15.30;99.90;;;;;;4965277;28;20027;-83
2023/08/31 07:34:07;;;;;;;3.60;2.50;;;15.30;99.90;;;;;;4969886;28;20405;-81
2023/08/31 07:36:33;;;;;;;5.70;2.92;;;15.50;99.90;;;;;;4968449;28;20038;-82
2023/08/31 07:38:58;;;;;;;7.40;2.78;;;15.90;99.90;;;;;;4962881;28;20031;-82
2023/08/31 07:41:24;;;;;;;3.88;2.40;;;15.50;99.90;;;;;;4964912;28;20058;-84
2023/08/31 07:43:50;;;;;;;6.00;2.50;;;15.60;99.90;;;;;;4965883;28;20041;-84
2023/08/31 07:46:16;;;;;;;6.47;2.67;;;15.60;99.90;;;;;;4972309;28;20022;-83
2023/08/31 07:48:42;;;;;;;4.07;3.00;;;15.60;99.90;;;;;;4964572;28;20114;-83
2023/08/31 07:51:08;;;;;;;3.95;2.53;;;15.60;99.90;;;;;;4965541;28;20142;-83
2023/08/31 07:53:34;;;;;;;6.15;2.58;;;15.70;99.90;;;;;;4966673;28;20364;-80
2023/08/31 07:55:59;;;;;;;6.20;2.15;;;15.70;99.90;;;;;;4967349;28;20487;-80
2023/08/31 07:58:26;;;;;;;6.78;2.97;;;15.70;99.90;;;;;;4972269;28;20031;-80
2023/08/31 08:00:55;;;;;;;5.35;2.60;;;15.70;99.90;;;;;;4965819;28;20037;-80
2023/08/31 08:03:21;;;;;;;5.63;3.30;;;15.80;99.90;;;;;;4967043;28;20391;-80
2023/08/31 08:05:47;;;;;;;8.90;3.55;;;15.90;99.90;;;;;;4964042;28;20027;-81
2023/08/31 08:08:12;;;;;;;5.55;2.55;;;15.90;99.90;;;;;;4964605;28;20443;-82
2023/08/31 08:10:38;;;;;;;4.95;3.08;;;15.90;99.90;;;;;;4970931;28;20019;-83
2023/08/31 08:13:04;;;;;;;6.40;2.40;;;16.20;99.90;;;;;;4969900;28;20522;-82
2023/08/31 08:15:31;;;;;;;6.70;2.35;;;16.00;99.90;;;;;;4966341;28;20030;-81
2023/08/31 08:17:59;;;;;;;7.28;3.10;;;16.00;99.90;;;;;;4970306;28;20042;-81
2023/08/31 08:20:25;;;;;;;2.47;2.28;;;15.90;99.90;;;;;;4970240;28;20034;-81
2023/08/31 08:22:54;;;;;;;3.30;2.50;;;16.10;99.90;;;;;;4970734;28;20045;-81
2023/08/31 08:25:20;;;;;;;6.30;2.70;;;16.20;99.90;;;;;;4968647;28;20121;-81
2023/08/31 08:27:47;;;;;;;6.30;2.20;;;16.20;99.90;;;;;;4970400;28;20057;-81
2023/08/31 08:30:13;;;;;;;5.68;1.98;;;16.30;99.90;;;;;;4971185;28;20027;-81
2023/08/31 08:32:38;;;;;;;3.55;2.38;;;16.30;99.90;;;;;;4970680;28;20037;-81
2023/08/31 08:35:04;;;;;;;5.07;2.50;;;16.40;99.90;;;;;;4967100;28;20039;-81
2023/08/31 08:37:33;;;;;;;5.38;2.47;;;16.40;99.90;;;;;;4963893;28;20030;-81
2023/08/31 08:39:58;;;;;;;6.50;2.45;;;16.40;99.90;;;;;;4971107;28;20041;-80
2023/08/31 08:42:25;;;;;;;4.90;2.58;;;16.50;99.90;;;;;;4954836;28;20391;-81
2023/08/31 08:44:51;;;;;;;3.42;2.50;;;16.50;99.90;;;;;;4967596;28;20092;-81
2023/08/31 08:47:18;;;;;;;9.07;3.28;;;16.60;99.90;;;;;;4968154;28;20056;-81
2023/08/31 08:49:44;;;;;;;2.60;2.40;;;16.60;99.90;;;;;;4956939;28;20090;-80
2023/08/31 08:52:11;;;;;;;3.38;2.17;;;16.60;99.90;;;;;;4967175;28;20035;-81
2023/08/31 08:54:37;;;;;;;3.13;2.03;;;16.60;99.90;;;;;;4959868;28;20038;-80
2023/08/31 08:57:03;;;;;;;3.58;1.48;;;16.60;99.90;;;;;;4955318;28;20388;-80
2023/08/31 08:59:30;;;;;;;5.30;1.75;;;16.60;99.90;;;;;;4964806;28;20094;-81
2023/08/31 09:01:56;;;;;;;1.52;1.10;;;16.60;99.90;;;;;;4973652;28;20030;-80
2023/08/31 09:04:22;;;;;;;5.75;1.60;;;16.60;99.90;;;;;;4964637;28;20030;-80
2023/08/31 09:06:47;;;;;;;2.92;1.33;;;16.50;99.90;;;;;;4962070;28;20522;-81
2023/08/31 09:09:13;;;;;;;5.22;1.35;;;16.50;99.90;;;;;;4964846;28;20443;-79
2023/08/31 09:11:39;;;;;;;2.38;1.08;;;16.60;99.90;;;;;;4972530;28;20555;-79
2023/08/31 09:14:19;;;;;;;2.17;1.30;;;16.50;99.90;;;;;;4970613;28;20039;-80
2023/08/31 09:16:53;;;;;;;4.55;1.70;;;16.50;99.90;;;;;;4968187;28;20495;-80
2023/08/31 09:19:24;;;;;;;3.35;1.40;;;16.50;99.90;;;;;;4969957;28;20022;-81
2023/08/31 09:21:50;;;;;;;;;;;16.60;99.90;;;;;;4965740;28;20023;-82
2023/08/31 09:24:19;;;;;;;4.35;1.70;;;16.60;99.90;;;;;;4969560;28;19918;-82
2023/08/31 09:26:47;;;;;;;1.38;1.20;;;16.60;99.90;;;;;;4967159;28;20023;-81
2023/08/31 09:29:13;;;;;;;5.53;1.40;;;16.70;99.90;;;;;;4970659;28;20026;-83
2023/08/31 09:31:42;;;;;;;1.90;1.20;;;16.70;99.90;;;;;;4972553;28;20038;-81
2023/08/31 09:34:08;;;;;;;2.60;0.90;;;16.80;99.90;;;;;;4968225;28;20054;-81
2023/08/31 09:36:34;;;;;;;2.30;1.50;;;16.80;99.90;;;;;;4969674;28;20395;-81
2023/08/31 09:38:59;;;;;;;3.92;1.20;;;16.80;99.90;;;;;;4969903;28;20039;-81
2023/08/31 09:41:25;;;;;;;4.90;0.90;;;16.90;99.90;;;;;;4969821;28;20027;-81
2023/08/31 09:43:50;;;;;;;2.30;1.02;;;17.20;99.90;;;;;;4967410;28;20035;-79
2023/08/31 09:46:17;;;;;;;3.75;1.20;;;17.00;99.90;;;;;;4968647;28;20019;-82
2023/08/31 09:48:43;;;;;;;2.13;0.80;;;17.00;99.90;;;;;;4967487;28;20074;-80
2023/08/31 09:51:14;;;;;;;2.67;0.98;;;17.10;99.90;;;;;;4970536;28;20417;-80
2023/08/31 09:53:41;;;;;;;1.38;0.90;;;17.10;99.90;;;;;;4970845;28;20098;-80
2023/08/31 09:56:11;;;;;;;2.78;1.38;;;17.20;99.90;;;;;;4971207;28;20078;-80
2023/08/31 09:58:37;;;;;;;2.05;1.33;;;17.20;99.90;;;;;;4969843;28;20521;-80
2023/08/31 10:01:03;;;;;;;2.33;1.05;;;17.30;99.90;;;;;;4971430;28;20034;-80
2023/08/31 10:03:29;;;;;;;2.80;1.30;;;17.30;99.90;;;;;;4971517;28;20035;-80
2023/08/31 10:05:56;;;;;;;2.47;1.00;;;17.70;99.90;;;;;;4969006;28;20027;-80
2023/08/31 10:08:23;;;;;;;3.85;1.30;;;17.30;99.90;;;;;;4973109;28;20110;-79
2023/08/31 10:10:49;;;;;;;3.78;1.00;;;17.40;99.90;;;;;;4970976;28;20027;-80
2023/08/31 10:13:16;;;;;;;2.67;1.45;;;17.30;99.90;;;;;;4971876;28;20548;-80
2023/08/31 10:15:43;;;;;;;2.42;0.80;;;17.40;99.90;;;;;;4969661;28;20115;-80
2023/08/31 10:18:09;;;;;;;2.05;0.88;;;17.40;99.90;;;;;;4970819;28;20026;-80
2023/08/31 10:20:35;;;;;;;4.10;1.00;;;17.40;99.90;;;;;;4971602;28;20073;-80
2023/08/31 10:23:07;;;;;;;13.57;1.35;;;17.50;99.90;;;;;;4972475;28;20173;-80
2023/08/31 10:25:44;;;;;;;1.10;0.82;;;17.50;99.90;;;;;;4970033;28;20025;-80
2023/08/31 10:28:20;;;;;;;1.98;0.90;;;17.50;99.90;;;;;;4971292;28;20157;-80
2023/08/31 10:31:08;;;;;;;3.42;0.90;;;17.50;99.90;;;;;;4969974;28;20049;-80
2023/08/31 10:33:44;;;;;;;2.88;0.88;;;17.60;99.90;;;;;;4967799;28;20050;-79
2023/08/31 10:36:14;;;;;;;2.28;1.05;;;17.80;99.90;;;;;;4972304;28;20019;-80
2023/08/31 10:38:44;;;;;;;2.38;0.90;;;17.90;99.90;;;;;;4971035;28;20058;-80
2023/08/31 10:41:09;;;;;;;1.48;1.20;;;17.70;99.90;;;;;;4971475;28;20035;-80
2023/08/31 10:43:57;;;;;;;3.85;0.82;;;17.70;99.90;;;;;;4972009;28;20038;-80
2023/08/31 10:46:28;;;;;;;3.78;1.13;;;17.70;99.90;;;;;;4967821;28;20023;-80
2023/08/31 10:49:10;;;;;;;4.35;1.30;;;17.70;99.90;;;;;;4971408;28;20027;-80
2023/08/31 10:51:37;;;;;;;1.30;0.77;;;17.70;99.90;;;;;;4970725;28;20019;-81
2023/08/31 10:54:10;;;;;;;1.05;0.68;;;17.80;99.90;;;;;;4969307;28;20073;-81
2023/08/31 10:57:04;;;;;;;1.45;0.77;;;17.80;99.90;;;;;;4969662;28;20095;-81
2023/08/31 10:59:47;;;;;;;2.50;0.95;;;17.80;99.90;;;;;;4974304;28;20082;-81
2023/08/31 11:02:34;;;;;;;1.88;0.93;;;17.90;99.90;;;;;;4973790;28;20023;-81
2023/08/31 11:05:17;;;;;;;3.63;1.50;;;17.90;99.90;;;;;;4973148;28;20081;-80
2023/08/31 11:07:47;;;;;;;1.85;0.60;;;17.90;99.90;;;;;;4972074;28;20080;-79
2023/08/31 11:10:23;;;;;;;3.03;1.10;;;17.90;99.90;;;;;;4975176;28;20031;-79
2023/08/31 11:12:52;;;;;;;3.33;1.00;;;17.90;99.90;;;;;;4973018;28;20118;-79
2023/08/31 11:15:23;;;;;;;5.65;1.40;;;17.90;99.90;;;;;;4973589;28;20498;-80
2023/08/31 11:17:53;;;;;;;3.20;1.25;;;17.90;99.90;;;;;;4973688;28;20130;-79
2023/08/31 11:20:20;;;;;;;;;;;18.00;99.90;;;;;;4975022;28;20027;-79
2023/08/31 11:22:49;;;;;;;1.90;0.88;;;18.60;99.90;;;;;;4974398;28;19914;-80
2023/08/31 11:25:16;;;;;;;3.05;1.10;;;18.00;99.90;;;;;;4975471;28;20092;-79
2023/08/31 11:27:43;;;;;;;4.00;1.00;;;18.00;99.90;;;;;;4974173;28;20027;-80
2023/08/31 11:30:15;;;;;;;5.43;1.10;;;18.00;99.90;;;;;;4974851;28;20074;-80
2023/08/31 11:32:46;;;;;;;1.92;0.95;;;18.10;99.90;;;;;;4973905;28;20027;-79
2023/08/31 11:35:11;;;;;;;;;;;18.10;99.90;;;;;;4975205;28;20479;-79
2023/08/31 11:37:37;;;;;;;2.42;1.10;;;18.10;99.90;;;;;;4972903;28;19910;-79
2023/08/31 11:40:05;;;;;;;3.05;1.10;;;18.10;99.90;;;;;;4975424;28;20030;-80
2023/08/31 11:42:31;;;;;;;3.30;1.30;;;18.20;99.90;;;;;;4973879;28;20033;-79
2023/08/31 11:44:57;;;;;;;1.85;0.95;;;18.20;99.90;;;;;;4974637;28;20109;-79
2023/08/31 11:47:24;;;;;;;3.03;1.42;;;18.20;99.90;;;;;;4972118;28;20598;-82
2023/08/31 11:49:50;;;;;;;2.22;0.90;;;18.30;99.90;;;;;;4974633;28;20463;-79
2023/08/31 11:52:17;;;;;;;3.25;0.85;;;18.30;99.90;;;;;;4973139;28;20035;-79
2023/08/31 11:54:43;;;;;;;3.17;1.27;;;18.30;99.90;;;;;;4974585;28;20419;-79
2023/08/31 11:57:09;;;;;;;2.78;1.23;;;18.30;99.90;;;;;;4971076;28;20031;-79
2023/08/31 11:59:36;;;;;;;1.92;0.80;;;18.40;99.90;;;;;;4974773;28;20419;-79
2023/08/31 12:02:07;;;;;;;2.78;1.02;;;18.40;99.90;;;;;;4972006;28;20487;-79
2023/08/31 12:04:32;;;;;;;3.47;0.90;;;18.40;99.90;;;;;;4974179;28;20026;-79
2023/08/31 12:07:06;;;;;;;2.10;0.88;;;18.40;99.90;;;;;;4972350;28;20038;-82
2023/08/31 12:09:32;;;;;;;4.35;1.05;;;18.50;99.90;;;;;;4972161;28;20505;-82
2023/08/31 12:11:58;;;;;;;2.20;0.93;;;18.50;99.90;;;;;;4973235;28;20033;-82
2023/08/31 12:14:25;;;;;;;2.05;0.95;;;18.50;99.90;;;;;;4970801;28;20022;-80
2023/08/31 12:16:52;;;;;;;3.00;1.00;;;19.00;99.90;;;;;;4968253;28;20054;-80
2023/08/31 12:19:18;;;;;;;1.77;0.88;;;18.60;99.90;;;;;;4972415;28;20031;-80
2023/08/31 12:21:46;;;;;;;6.30;1.42;;;18.60;99.90;;;;;;4968371;28;20427;-81
2023/08/31 12:24:12;;;;;;;4.65;1.30;;;18.60;99.90;;;;;;4973882;28;20078;-82
2023/08/31 12:26:38;;;;;;;2.65;0.90;;;18.70;99.90;;;;;;4970095;28;20035;-81
2023/08/31 12:29:07;;;;;;;5.82;1.50;;;18.70;99.90;;;;;;4970315;28;20022;-81
2023/08/31 12:31:33;;;;;;;2.17;1.20;;;18.70;99.90;;;;;;4972105;28;20018;-80
2023/08/31 12:34:00;;;;;;;7.57;1.30;;;18.70;99.90;;;;;;4971251;28;20030;-80
2023/08/31 12:36:26;;;;;;;7.60;1.63;;;18.70;99.90;;;;;;4970730;28;20411;-80
2023/08/31 12:38:51;;;;;;;1.88;1.17;;;18.70;99.90;;;;;;4970867;28;20026;-80
2023/08/31 12:41:17;;;;;;;4.18;1.30;;;19.10;99.90;;;;;;4971627;28;20457;-81
2023/08/31 12:43:43;;;;;;;2.40;1.10;;;18.70;99.90;;;;;;4972591;28;20053;-81
2023/08/31 12:46:09;;;;;;;3.60;1.35;;;18.70;99.90;;;;;;4973293;28;20054;-81